La Lipela, Argentina
Current Conditions -  °F | °C
As of 9:00 PM on Tuesday 21 Oct 2014 (Local Time) from SAZS Reporting Station
Broken Clouds Broken Clouds  
Wind Chill: 54°   Ceiling: 20000
Heat Index: 54°   Visibility: 6mi
Dew Point: 43°   Wind: 17mph
Humidity: 67%   Direction: 320°NW
Pressure: 29.97"   Gusts: NA
Location:  40.8°S, 71.13°W
Report Text: SAZS 220000Z 32015KT 9999 SCT030 SCT100BKN200 12/06 Q1015
Loading
Personal Weather Stations






























Interactive Weather Map
Tropical Storm Tracking
New forecast layout! Learn more

10-Day Weather Forecast

Advertisements
Track Severe Weather on mobile